Time;durP1;ratioP1;P1;durP2;ratioP2;P2;SDS_P1;SDS_P2;PMS_P1;PMS_P2;Temp;Humidity;BMP_temperature;BMP_pressure;BME280_temperature;BME280_humidity;BME280_pressure;Samples;Min_cycle;Max_cycle;Signal;HPM_P1;HPM_P2
2021/12/05 00:18:20;;;;;;;;;;;;;;;2.70;47.19;97069.45;1569329;91;25709;-70
2021/12/05 00:20:54;;;;;;;;;;;;;;;2.72;47.20;97063.73;1568017;91;25523;-68
2021/12/05 00:23:21;;;;;;;;;;;;;;;2.77;47.20;97070.41;1566553;91;25734;-70
2021/12/05 00:25:46;;;;;;;;;;;;;;;2.77;47.40;97077.17;1568976;91;25717;-69
2021/12/05 00:33:42;;;;;;;;;;;;;;;2.78;47.73;97068.48;1569107;91;25532;-70
2021/12/05 00:55:03;;;;;;;;;;;;;;;2.82;48.83;97098.69;1569329;91;25470;-70
2021/12/05 01:00:05;;;;;;;;;;;;;;;2.82;49.18;97095.20;1569421;91;25651;-70
2021/12/05 01:05:17;;;;;;;;;;;;;;;2.82;49.71;97104.67;1569234;91;25673;-70
2021/12/05 01:08:00;;;;;;;;;;;;;;;2.77;49.83;97110.98;1568193;91;25688;-69
2021/12/05 01:13:13;;;;;;;;;;;;;;;2.76;49.96;97114.77;1569225;91;25549;-70
2021/12/05 01:15:17;;;;;;;;;;;;;;;2.76;50.15;97106.11;1568203;91;25476;-70
2021/12/05 01:20:30;;;;;;;;;;;;;;;2.81;50.63;97126.05;1569636;91;25584;-69
2021/12/05 01:23:12;;;;;;;;;;;;;;;2.80;51.35;97129.86;1569422;91;27470;-69
2021/12/05 01:25:42;;;;;;;;;;;;;;;2.73;51.86;97131.60;1568972;91;25778;-70
2021/12/05 01:28:12;;;;;;;;;;;;;;;2.72;51.52;97127.30;1568998;91;25530;-69
2021/12/05 01:30:43;;;;;;;;;;;;;;;2.72;51.30;97121.35;1568742;91;25721;-70
2021/12/05 01:33:53;;;;;;;;;;;;;;;2.72;51.81;97126.77;1568628;91;25667;-70
2021/12/05 01:35:51;;;;;;;;;;;;;;;2.62;51.16;97120.98;1560408;91;26807;-70
2021/12/05 01:38:06;;;;;;;;;;;;;;;2.60;51.23;97116.44;1568366;91;25812;-69
2021/12/05 02:01:14;;;;;;;;;;;;;;;2.54;55.28;97098.70;1569407;91;27022;-70
2021/12/05 02:41:21;;;;;;;;;;;;;;;1.30;64.68;97095.58;1569862;91;26910;-67
2021/12/05 02:43:57;;;;;;;;;;;;;;;1.29;65.24;97094.52;1569172;91;25829;-67
2021/12/05 02:46:21;;;;;;;;;;;;;;;1.21;66.42;97091.35;1568763;91;25875;-67
2021/12/05 02:48:46;;;;;;;;;;;;;;;1.16;65.72;97094.14;1568982;91;25730;-66
2021/12/05 02:51:16;;;;;;;;;;;;;;;1.13;65.79;97087.41;1569204;91;25508;-67
2021/12/05 02:53:55;;;;;;;;;;;;;;;1.12;66.07;97093.09;1569047;91;29635;-68
2021/12/05 02:56:15;;;;;;;;;;;;;;;1.11;66.08;97086.10;1567533;91;25541;-68
2021/12/05 02:58:50;;;;;;;;;;;;;;;1.11;66.49;97080.70;1569239;91;25944;-68
2021/12/05 03:01:25;;;;;;;;;;;;;;;1.10;66.61;97080.45;1568915;91;25740;-68
2021/12/05 03:03:41;;;;;;;;;;;;;;;1.09;66.85;97078.30;1567354;91;25616;-69
2021/12/05 03:06:16;;;;;;;;;;;;;;;1.07;67.14;97080.47;1569295;91;27862;-68
2021/12/05 03:08:38;;;;;;;;;;;;;;;1.06;67.40;97077.53;1568833;91;25532;-68
2021/12/05 03:11:05;;;;;;;;;;;;;;;1.04;67.61;97077.03;1569358;91;25754;-69
2021/12/05 03:13:34;;;;;;;;;;;;;;;1.04;68.51;97080.27;1569081;91;25802;-69
2021/12/05 03:16:00;;;;;;;;;;;;;;;1.02;68.59;97081.09;1569190;91;25782;-69
2021/12/05 03:18:26;;;;;;;;;;;;;;;0.94;68.59;97078.49;1569107;91;27378;-69
2021/12/05 03:20:52;;;;;;;;;;;;;;;0.92;68.69;97073.39;1569088;91;27223;-69
2021/12/05 03:23:18;;;;;;;;;;;;;;;0.90;68.99;97069.38;1569196;91;25615;-68
2021/12/05 03:25:44;;;;;;;;;;;;;;;0.91;69.11;97069.09;1568988;91;25723;-68
2021/12/05 03:28:10;;;;;;;;;;;;;;;0.90;69.39;97061.29;1569251;91;25506;-68
2021/12/05 03:30:37;;;;;;;;;;;;;;;0.88;69.82;97068.32;1569174;91;29644;-67
2021/12/05 03:33:03;;;;;;;;;;;;;;;0.84;69.96;97061.91;1569090;91;27197;-66
2021/12/05 03:35:31;;;;;;;;;;;;;;;0.82;70.71;97063.55;1569210;91;25732;-67
2021/12/05 03:37:58;;;;;;;;;;;;;;;0.86;70.51;97065.91;1569043;91;25768;-67
2021/12/05 03:40:27;;;;;;;;;;;;;;;0.85;70.72;97065.67;1569229;91;25761;-67
2021/12/05 03:42:55;;;;;;;;;;;;;;;0.91;70.96;97064.23;1569133;91;27354;-67
2021/12/05 03:45:25;;;;;;;;;;;;;;;0.94;71.33;97068.52;1568997;91;25785;-67
2021/12/05 03:47:51;;;;;;;;;;;;;;;0.97;71.23;97070.63;1569031;91;25737;-67
2021/12/05 03:50:17;;;;;;;;;;;;;;;0.99;71.73;97072.50;1569003;91;25817;-67
2021/12/05 03:52:44;;;;;;;;;;;;;;;0.97;72.04;97076.03;1569464;91;25729;-67
2021/12/05 03:55:11;;;;;;;;;;;;;;;0.91;73.18;97073.14;1569176;91;27526;-67
2021/12/05 03:57:38;;;;;;;;;;;;;;;0.89;72.26;97079.36;1569132;91;25665;-67
2021/12/05 04:00:23;;;;;;;;;;;;;;;0.89;72.50;97075.88;1569099;91;25775;-66
2021/12/05 04:02:51;;;;;;;;;;;;;;;0.86;72.52;97069.96;1568839;91;25761;-65
2021/12/05 04:05:18;;;;;;;;;;;;;;;0.86;72.99;97078.59;1569038;91;25769;-66
2021/12/05 04:07:44;;;;;;;;;;;;;;;0.80;73.47;97079.77;1569282;91;27448;-66
2021/12/05 04:10:11;;;;;;;;;;;;;;;0.80;74.51;97081.90;1569809;91;25754;-65
2021/12/05 04:12:37;;;;;;;;;;;;;;;0.74;74.56;97079.00;1569313;91;25699;-66
2021/12/05 04:15:05;;;;;;;;;;;;;;;0.73;74.37;97078.22;1569168;91;25813;-66
2021/12/05 04:17:31;;;;;;;;;;;;;;;0.72;74.37;97081.20;1569531;91;25470;-66
2021/12/05 04:19:57;;;;;;;;;;;;;;;0.73;74.83;97075.52;1569348;91;27986;-66
2021/12/05 04:22:23;;;;;;;;;;;;;;;0.77;74.75;97087.09;1569194;91;25786;-65
2021/12/05 04:24:50;;;;;;;;;;;;;;;0.81;74.15;97084.84;1569396;91;25635;-65
2021/12/05 04:27:16;;;;;;;;;;;;;;;0.84;75.28;97095.63;1569222;91;25950;-66
2021/12/05 04:29:42;;;;;;;;;;;;;;;0.84;74.60;97097.75;1569303;91;25646;-66
2021/12/05 04:32:09;;;;;;;;;;;;;;;0.87;74.40;97098.53;1569142;91;27465;-66
2021/12/05 04:34:35;;;;;;;;;;;;;;;0.91;74.80;97101.46;1569208;91;25786;-67
2021/12/05 04:37:01;;;;;;;;;;;;;;;0.88;75.65;97097.98;1569261;91;25521;-65
2021/12/05 04:39:28;;;;;;;;;;;;;;;0.90;74.84;97105.26;1566842;91;25787;-65
2021/12/05 04:41:56;;;;;;;;;;;;;;;0.92;75.61;97107.67;1569502;91;25626;-65
2021/12/05 04:44:23;;;;;;;;;;;;;;;0.89;75.44;97104.20;1569346;90;27593;-65
2021/12/05 04:46:49;;;;;;;;;;;;;;;0.87;75.06;97100.44;1569235;91;25489;-65
2021/12/05 04:49:16;;;;;;;;;;;;;;;0.86;75.60;97098.28;1569485;91;25702;-65
2021/12/05 04:51:44;;;;;;;;;;;;;;;0.84;75.84;97103.72;1569613;91;25760;-65
2021/12/05 04:54:32;;;;;;;;;;;;;;;0.82;75.82;97108.58;1569743;91;25496;-64
2021/12/05 04:56:58;;;;;;;;;;;;;;;0.81;75.41;97110.47;1616733;88;27498;-65
2021/12/05 04:59:28;;;;;;;;;;;;;;;0.80;76.29;97110.22;1616344;88;27289;-65
2021/12/05 05:01:57;;;;;;;;;;;;;;;0.81;75.70;97109.68;1616538;88;25723;-65
2021/12/05 05:04:27;;;;;;;;;;;;;;;0.86;75.62;97108.25;1616602;88;26433;-65
2021/12/05 05:06:54;;;;;;;;;;;;;;;0.89;75.88;97110.38;1616494;88;25755;-65
2021/12/05 05:09:21;;;;;;;;;;;;;;;0.88;76.00;97115.52;1616572;88;27321;-65
2021/12/05 05:11:47;;;;;;;;;;;;;;;0.90;76.85;97112.53;1616448;88;25697;-64
2021/12/05 05:14:14;;;;;;;;;;;;;;;0.86;76.78;97119.86;1616391;88;25772;-64
2021/12/05 05:16:43;;;;;;;;;;;;;;;0.81;77.06;97119.91;1616308;88;25933;-64
2021/12/05 05:19:11;;;;;;;;;;;;;;;0.77;77.22;97116.75;1616450;88;25565;-64
2021/12/05 05:22:00;;;;;;;;;;;;;;;0.75;77.46;97118.38;1621435;88;27418;-65
2021/12/05 05:24:52;;;;;;;;;;;;;;;0.73;77.06;97125.41;1623413;88;25715;-65
2021/12/05 05:43:36;;;;;;;;;;;;;;;0.71;77.66;97142.41;1623831;88;25484;-63
2021/12/05 05:48:36;;;;;;;;;;;;;;;0.71;78.14;97142.41;1624054;88;25982;-63
2021/12/05 05:51:01;;;;;;;;;;;;;;;0.72;77.82;97144.01;1623878;88;25694;-64
2021/12/05 05:53:27;;;;;;;;;;;;;;;0.74;77.84;97151.28;1624133;88;25687;-64
2021/12/05 05:55:55;;;;;;;;;;;;;;;0.77;77.70;97150.45;1625282;88;25881;-64
2021/12/05 05:58:26;;;;;;;;;;;;;;;0.82;77.72;97151.20;1627671;88;25455;-63
2021/12/05 06:01:14;;;;;;;;;;;;;;;0.83;77.78;97154.14;1627154;88;25861;-64
2021/12/05 06:03:22;;;;;;;;;;;;;;;0.84;77.78;97157.66;1624733;88;25520;-63
2021/12/05 06:05:52;;;;;;;;;;;;;;;0.79;78.16;97158.51;1627436;88;25728;-63
2021/12/05 06:08:21;;;;;;;;;;;;;;;0.72;79.79;97162.10;1627050;88;25928;-63
2021/12/05 06:10:47;;;;;;;;;;;;;;;0.66;78.73;97168.06;1627247;88;25667;-64
2021/12/05 06:13:14;;;;;;;;;;;;;;;0.67;78.51;97168.34;1627923;88;28206;-63
2021/12/05 06:15:41;;;;;;;;;;;;;;;0.67;78.76;97167.00;1627152;88;25995;-64
2021/12/05 06:18:07;;;;;;;;;;;;;;;0.66;78.59;97169.98;1627217;88;25500;-64
2021/12/05 06:20:33;;;;;;;;;;;;;;;0.68;78.39;97169.95;1627668;88;25800;-64
2021/12/05 06:23:00;;;;;;;;;;;;;;;0.71;78.28;97176.12;1627269;88;25713;-64
2021/12/05 06:25:28;;;;;;;;;;;;;;;0.77;78.30;97180.91;1627189;88;27549;-64
2021/12/05 06:27:59;;;;;;;;;;;;;;;0.79;78.63;97183.31;1627217;88;25639;-64
2021/12/05 06:30:37;;;;;;;;;;;;;;;0.79;78.96;97187.36;1627210;88;25742;-63
2021/12/05 06:38:52;;;;;;;;;;;;;;;0.90;78.28;97187.52;1627289;88;25662;-64
2021/12/05 06:48:48;;;;;;;;;;;;;;;0.90;78.87;97208.29;1627358;88;25464;-63
2021/12/05 06:51:17;;;;;;;;;;;;;;;0.90;78.52;97213.15;1627303;88;27404;-62
2021/12/05 06:53:44;;;;;;;;;;;;;;;0.89;78.71;97216.91;1627100;88;25704;-63
2021/12/05 06:56:10;;;;;;;;;;;;;;;0.89;78.72;97214.22;1627330;88;25672;-63
2021/12/05 06:58:36;;;;;;;;;;;;;;;0.90;78.67;97219.08;1627297;88;25696;-62
2021/12/05 07:01:06;;;;;;;;;;;;;;;0.91;78.61;97220.67;1627503;88;25526;-62
2021/12/05 07:03:33;;;;;;;;;;;;;;;0.93;78.78;97222.02;1627635;88;27463;-62
2021/12/05 07:08:31;;;;;;;;;;;;;;;0.92;80.37;97224.44;1627205;88;25791;-62
2021/12/05 07:11:19;;;;;;;;;;;;;;;0.94;79.33;97229.02;1627181;88;25471;-62
2021/12/05 07:14:06;;;;;;;;;;;;;;;0.94;79.90;97231.70;1627093;88;25514;-60
2021/12/05 07:16:42;;;;;;;;;;;;;;;0.91;80.44;97236.33;1626558;88;25909;-61
2021/12/05 07:18:57;;;;;;;;;;;;;;;0.90;79.98;97242.00;1623997;88;25822;-62
2021/12/05 07:21:29;;;;;;;;;;;;;;;0.86;80.76;97238.53;1626320;88;25726;-61
2021/12/05 07:26:43;;;;;;;;;;;;;;;0.78;80.54;97243.21;1627272;88;25688;-61
2021/12/05 07:42:41;;;;;;;;;;;;;;;0.95;80.52;97248.70;1627307;88;25714;-61
2021/12/05 07:45:07;;;;;;;;;;;;;;;0.94;80.92;97241.69;1622587;88;26341;-60
2021/12/05 07:47:34;;;;;;;;;;;;;;;0.93;80.71;97243.59;1593622;90;25714;-60
2021/12/05 07:50:08;;;;;;;;;;;;;;;0.93;80.70;97238.73;1619395;88;26079;-61
2021/12/05 07:52:32;;;;;;;;;;;;;;;0.91;80.70;97240.38;1617269;86;25793;-58
2021/12/05 08:16:48;;;;;;;;;;;;;;;1.04;81.33;97263.19;1640118;87;25647;-58
2021/12/05 08:19:12;;;;;;;;;;;;;;;1.09;81.19;97260.42;1639744;87;25691;-59
2021/12/05 08:21:38;;;;;;;;;;;;;;;1.09;81.32;97258.25;1640208;87;27489;-59
2021/12/05 08:24:05;;;;;;;;;;;;;;;1.11;81.53;97256.90;1640295;87;25706;-59
2021/12/05 08:26:33;;;;;;;;;;;;;;;1.15;81.83;97257.67;1640167;87;25465;-60
2021/12/05 08:29:07;;;;;;;;;;;;;;;1.12;81.97;97260.38;1639809;87;25637;-60
2021/12/05 08:37:20;;;;;;;;;;;;;;;1.16;81.79;97268.19;1640119;87;25514;-61
2021/12/05 09:25:39;;;;;;;;;;;;;;;1.42;82.11;97298.13;1639651;87;25632;-62
2021/12/05 09:30:49;;;;;;;;;;;;;;;1.44;82.28;97312.94;1639644;87;25705;-62
2021/12/05 09:53:05;;;;;;;;;;;;;;;1.53;81.85;97316.38;1639671;87;25803;-64
2021/12/05 10:03:13;;;;;;;;;;;;;;;1.59;81.81;97319.27;1630071;88;25654;-65
2021/12/05 10:11:35;;;;;;;;;;;;;;;1.59;82.40;97319.27;1630072;88;25696;-64
2021/12/05 10:14:15;;;;;;;;;;;;;;;1.56;82.29;97323.36;1628887;88;25653;-64
2021/12/05 10:16:50;;;;;;;;;;;;;;;1.59;82.11;97324.14;1626825;88;25609;-64
2021/12/05 10:19:36;;;;;;;;;;;;;;;1.63;82.10;97320.30;1626377;88;25663;-64
2021/12/05 10:38:14;;;;;;;;;;;;;;;1.77;81.86;97339.86;1629968;87;25673;-64
2021/12/05 10:40:47;;;;;;;;;;;;;;;1.75;81.88;97342.84;1630323;87;25729;-64
2021/12/05 10:43:18;;;;;;;;;;;;;;;1.73;82.14;97343.13;1630317;87;25625;-64
2021/12/05 10:45:57;;;;;;;;;;;;;;;1.74;82.02;97335.84;1630505;87;25720;-64
2021/12/05 10:48:33;;;;;;;;;;;;;;;1.76;81.91;97332.31;1630229;87;27570;-64
2021/12/05 10:51:02;;;;;;;;;;;;;;;1.81;81.98;97332.23;1629677;88;25633;-64
2021/12/05 10:53:38;;;;;;;;;;;;;;;1.84;81.76;97338.41;1630352;87;25904;-64
2021/12/05 10:56:08;;;;;;;;;;;;;;;1.85;81.53;97340.58;1629621;88;25982;-64
2021/12/05 10:58:37;;;;;;;;;;;;;;;1.87;81.43;97350.00;1638178;87;25487;-64
2021/12/05 11:01:07;;;;;;;;;;;;;;;1.86;81.35;97348.93;1639888;87;27631;-64
2021/12/05 11:03:34;;;;;;;;;;;;;;;1.85;81.24;97354.91;1639922;87;25759;-63
2021/12/05 11:06:00;;;;;;;;;;;;;;;1.85;81.28;97359.48;1639876;87;25530;-64
2021/12/05 11:08:36;;;;;;;;;;;;;;;1.82;81.50;97357.36;1639777;87;25726;-64
2021/12/05 11:11:14;;;;;;;;;;;;;;;1.79;81.41;97366.05;1639594;87;25411;-64
2021/12/05 11:13:44;;;;;;;;;;;;;;;1.77;81.62;97362.81;1639751;87;27354;-64
2021/12/05 11:16:45;;;;;;;;;;;;;;;1.77;81.57;97360.11;1639886;87;25752;-64
2021/12/05 11:19:21;;;;;;;;;;;;;;;1.73;81.85;97357.20;1639799;87;25480;-63
2021/12/05 11:21:57;;;;;;;;;;;;;;;1.76;82.04;97357.98;1639795;87;26136;-64
2021/12/05 11:24:33;;;;;;;;;;;;;;;1.77;82.17;97363.63;1639899;87;25491;-64
2021/12/05 11:27:14;;;;;;;;;;;;;;;1.83;81.89;97357.61;1638735;87;27623;-64
2021/12/05 11:29:55;;;;;;;;;;;;;;;1.87;81.83;97359.45;1639492;87;25957;-64
2021/12/05 11:32:29;;;;;;;;;;;;;;;1.92;81.53;97368.05;1639625;87;25608;-64
2021/12/05 11:34:52;;;;;;;;;;;;;;;1.93;81.46;97369.64;1638987;87;25784;-64
2021/12/05 11:37:18;;;;;;;;;;;;;;;1.97;81.58;97369.34;1639579;87;25711;-64
2021/12/05 11:39:46;;;;;;;;;;;;;;;1.96;81.29;97372.34;1639686;87;27540;-64
2021/12/05 11:42:17;;;;;;;;;;;;;;;1.93;81.33;97372.91;1639735;87;25512;-64
2021/12/05 11:44:46;;;;;;;;;;;;;;;1.93;81.57;97368.86;1639789;87;25716;-64
2021/12/05 11:47:17;;;;;;;;;;;;;;;1.94;81.55;97366.41;1639519;87;25632;-64
2021/12/05 11:49:43;;;;;;;;;;;;;;;1.93;81.68;97368.29;1640017;87;25633;-63
2021/12/05 11:52:10;;;;;;;;;;;;;;;1.92;81.68;97369.39;1639568;87;27708;-63
2021/12/05 11:54:42;;;;;;;;;;;;;;;1.91;81.69;97373.73;1639627;87;25724;-63
2021/12/05 11:57:12;;;;;;;;;;;;;;;1.91;81.55;97371.03;1638538;87;25470;-63
2021/12/05 11:59:47;;;;;;;;;;;;;;;1.94;81.45;97371.27;1619538;88;26330;-63
2021/12/05 12:02:29;;;;;;;;;;;;;;;1.97;81.43;97373.40;1630752;88;25700;-63
2021/12/05 12:05:05;;;;;;;;;;;;;;;2.02;81.25;97377.13;1630722;88;27475;-62
2021/12/05 12:07:41;;;;;;;;;;;;;;;2.05;81.25;97376.01;1630475;88;25948;-62
2021/12/05 12:10:23;;;;;;;;;;;;;;;2.10;81.05;97369.73;1630807;87;25701;-62
2021/12/05 12:12:52;;;;;;;;;;;;;;;2.16;81.22;97369.90;1630557;87;26383;-64
2021/12/05 12:15:20;;;;;;;;;;;;;;;2.12;80.92;97369.70;1630804;87;25651;-64
2021/12/05 12:17:48;;;;;;;;;;;;;;;2.13;80.96;97369.95;1630748;88;27545;-64
2021/12/05 12:20:19;;;;;;;;;;;;;;;2.14;81.12;97366.70;1631006;87;25746;-64
2021/12/05 12:22:46;;;;;;;;;;;;;;;2.11;81.23;97364.05;1631007;87;25493;-64
2021/12/05 12:25:16;;;;;;;;;;;;;;;2.12;81.42;97366.99;1630903;87;25821;-64
2021/12/05 12:27:44;;;;;;;;;;;;;;;2.12;81.17;97371.05;1630617;87;25666;-64
2021/12/05 12:30:12;;;;;;;;;;;;;;;2.12;81.13;97366.18;1630664;88;27792;-64
2021/12/05 12:32:42;;;;;;;;;;;;;;;2.16;81.09;97367.77;1630847;87;25642;-64
2021/12/05 12:35:21;;;;;;;;;;;;;;;2.17;80.87;97369.36;1630657;88;25699;-64
2021/12/05 12:37:59;;;;;;;;;;;;;;;2.16;81.08;97365.84;1630897;88;25704;-64
2021/12/05 12:40:37;;;;;;;;;;;;;;;2.24;80.91;97363.05;1630980;87;25616;-64
2021/12/05 12:43:06;;;;;;;;;;;;;;;2.29;80.88;97368.94;1630637;87;27414;-64
2021/12/05 12:45:39;;;;;;;;;;;;;;;2.33;80.66;97367.28;1630848;87;25621;-64
2021/12/05 12:48:11;;;;;;;;;;;;;;;2.35;80.79;97360.47;1630292;87;25678;-65
2021/12/05 12:50:52;;;;;;;;;;;;;;;2.36;80.67;97359.94;1630884;88;25801;-65
2021/12/05 12:53:27;;;;;;;;;;;;;;;2.38;80.76;97360.43;1630849;87;25455;-64
2021/12/05 12:56:05;;;;;;;;;;;;;;;2.33;80.61;97355.89;1630537;87;28517;-64
2021/12/05 12:58:37;;;;;;;;;;;;;;;2.29;80.67;97356.77;1630289;88;25635;-65
2021/12/05 13:01:50;;;;;;;;;;;;;;;2.25;80.74;97355.21;1627382;88;25437;-64
2021/12/05 13:12:48;;;;;;;;;;;;;;;2.21;80.82;97353.63;1630652;87;25688;-63
2021/12/05 13:15:36;;;;;;;;;;;;;;;2.24;80.66;97350.88;1630751;88;25449;-63
2021/12/05 13:18:06;;;;;;;;;;;;;;;2.34;80.80;97359.41;1630817;88;25744;-63
2021/12/05 13:20:47;;;;;;;;;;;;;;;2.37;80.57;97364.23;1630955;87;25467;-63
2021/12/05 13:23:19;;;;;;;;;;;;;;;2.36;80.56;97352.61;1630605;87;27014;-63
2021/12/05 13:26:10;;;;;;;;;;;;;;;2.39;80.59;97358.00;1617475;88;25889;-63
2021/12/05 13:28:43;;;;;;;;;;;;;;;2.38;80.55;97350.97;1630636;88;25670;-64
2021/12/05 13:31:31;;;;;;;;;;;;;;;2.36;80.62;97351.83;1630757;87;26558;-64
2021/12/05 13:34:24;;;;;;;;;;;;;;;2.33;80.92;97353.19;1630773;87;25666;-64
2021/12/05 13:36:57;;;;;;;;;;;;;;;2.29;81.18;97358.94;1630582;87;27444;-64
2021/12/05 13:39:45;;;;;;;;;;;;;;;2.28;81.02;97356.52;1629338;88;25529;-64
2021/12/05 13:42:39;;;;;;;;;;;;;;;2.29;80.81;97357.58;1630655;88;25650;-64
2021/12/05 13:45:11;;;;;;;;;;;;;;;2.27;80.75;97359.77;1630996;87;25912;-63
2021/12/05 13:47:47;;;;;;;;;;;;;;;2.33;80.78;97357.25;1629568;88;25688;-64
2021/12/05 13:50:29;;;;;;;;;;;;;;;2.41;80.54;97364.44;1630902;87;27493;-65
2021/12/05 13:53:01;;;;;;;;;;;;;;;2.46;80.25;97367.09;1630529;87;25439;-63
2021/12/05 13:55:53;;;;;;;;;;;;;;;2.51;80.19;97363.75;1630914;88;25495;-63
2021/12/05 13:58:36;;;;;;;;;;;;;;;2.51;80.25;97362.41;1630585;88;25822;-64
2021/12/05 14:01:18;;;;;;;;;;;;;;;2.51;79.89;97363.75;1630580;88;25706;-64
2021/12/05 14:03:54;;;;;;;;;;;;;;;2.50;79.94;97371.62;1630741;88;27365;-64
2021/12/05 14:06:58;;;;;;;;;;;;;;;2.46;79.81;97369.79;1630599;87;25760;-64
2021/12/05 14:09:43;;;;;;;;;;;;;;;2.46;80.03;97369.25;1630820;87;25674;-64
2021/12/05 14:12:27;;;;;;;;;;;;;;;2.43;80.10;97371.19;1629356;88;25994;-64
2021/12/05 14:14:54;;;;;;;;;;;;;;;2.41;79.85;97376.61;1630239;88;25626;-64
2021/12/05 14:17:23;;;;;;;;;;;;;;;2.37;79.98;97382.62;1630759;87;27537;-64
2021/12/05 14:20:02;;;;;;;;;;;;;;;2.36;80.09;97389.68;1630532;87;25654;-64
2021/12/05 14:22:31;;;;;;;;;;;;;;;2.37;80.02;97385.33;1630550;87;25666;-64
2021/12/05 14:25:00;;;;;;;;;;;;;;;2.41;80.04;97399.59;1630793;87;25741;-64
2021/12/05 14:27:29;;;;;;;;;;;;;;;2.45;79.96;97397.94;1630794;87;25451;-64
2021/12/05 14:29:57;;;;;;;;;;;;;;;2.45;79.75;97412.23;1631080;87;27386;-64
2021/12/05 14:32:32;;;;;;;;;;;;;;;2.46;79.77;97413.05;1630380;88;26274;-64
2021/12/05 14:35:05;;;;;;;;;;;;;;;2.48;79.80;97416.28;1630562;88;25483;-64
2021/12/05 14:37:33;;;;;;;;;;;;;;;2.45;79.75;97423.05;1630919;88;25700;-63
2021/12/05 14:40:06;;;;;;;;;;;;;;;2.41;79.90;97422.03;1630760;87;25445;-62
2021/12/05 14:42:35;;;;;;;;;;;;;;;2.33;79.79;97428.11;1630054;88;27488;-63
2021/12/05 14:45:08;;;;;;;;;;;;;;;2.25;80.00;97430.91;1630748;87;25629;-62
2021/12/05 14:47:36;;;;;;;;;;;;;;;2.20;80.06;97432.30;1630799;87;25462;-62
2021/12/05 14:50:05;;;;;;;;;;;;;;;2.13;80.12;97440.22;1630456;88;25753;-63
2021/12/05 14:52:34;;;;;;;;;;;;;;;2.07;80.49;97441.93;1630528;87;25662;-62
2021/12/05 14:55:07;;;;;;;;;;;;;;;1.98;80.68;97443.90;1619501;88;28448;-62
2021/12/05 14:57:36;;;;;;;;;;;;;;;1.98;80.67;97445.78;1630727;87;25766;-62
2021/12/05 15:00:13;;;;;;;;;;;;;;;1.97;80.80;97455.00;1629987;88;25713;-63
2021/12/05 15:02:40;;;;;;;;;;;;;;;1.94;80.82;97457.73;1630112;88;25763;-63
2021/12/05 15:05:12;;;;;;;;;;;;;;;1.92;81.13;97457.20;1631079;87;25677;-63
2021/12/05 15:07:40;;;;;;;;;;;;;;;1.93;80.79;97447.21;1630374;88;27434;-63
2021/12/05 15:10:08;;;;;;;;;;;;;;;1.95;80.70;97454.47;1630566;87;25503;-63
2021/12/05 15:12:36;;;;;;;;;;;;;;;1.96;80.69;97455.53;1630587;88;25670;-62
2021/12/05 15:15:08;;;;;;;;;;;;;;;1.96;80.65;97455.53;1630473;87;25741;-63
2021/12/05 15:17:41;;;;;;;;;;;;;;;1.97;80.69;97453.64;1630642;87;25452;-63
2021/12/05 15:20:11;;;;;;;;;;;;;;;1.96;80.68;97455.53;1630755;87;27516;-63
2021/12/05 15:22:37;;;;;;;;;;;;;;;1.95;80.59;97449.06;1630736;87;25761;-64
2021/12/05 15:25:07;;;;;;;;;;;;;;;1.95;80.75;97448.52;1630638;87;25658;-64
2021/12/05 15:27:35;;;;;;;;;;;;;;;1.97;80.71;97442.84;1630746;87;25796;-64
2021/12/05 15:30:05;;;;;;;;;;;;;;;1.96;80.67;97431.21;1630701;87;25645;-64
2021/12/05 15:32:32;;;;;;;;;;;;;;;1.97;80.69;97432.84;1630793;87;27573;-64
2021/12/05 15:35:04;;;;;;;;;;;;;;;2.02;80.72;97429.81;1630634;88;25697;-64
2021/12/05 15:37:31;;;;;;;;;;;;;;;2.06;80.68;97428.95;1630529;87;25713;-63
2021/12/05 15:39:59;;;;;;;;;;;;;;;2.12;80.65;97439.16;1630577;87;25730;-64
2021/12/05 15:42:34;;;;;;;;;;;;;;;2.16;80.54;97440.74;1630539;87;25415;-64
2021/12/05 15:45:04;;;;;;;;;;;;;;;2.18;80.51;97433.95;1630812;87;27491;-64
2021/12/05 15:47:33;;;;;;;;;;;;;;;2.26;80.68;97435.20;1630322;88;25714;-64
2021/12/05 15:50:02;;;;;;;;;;;;;;;2.30;80.34;97437.58;1630814;87;25764;-64
2021/12/05 15:52:32;;;;;;;;;;;;;;;2.31;80.18;97442.45;1630697;88;25738;-64
2021/12/05 15:54:59;;;;;;;;;;;;;;;2.29;80.12;97445.45;1630749;88;25449;-64
2021/12/05 15:57:31;;;;;;;;;;;;;;;2.25;80.08;97449.26;1630480;87;27602;-64
2021/12/05 15:59:59;;;;;;;;;;;;;;;2.22;80.20;97446.34;1630067;88;25427;-64
2021/12/05 16:02:26;;;;;;;;;;;;;;;2.18;80.26;97439.89;1630804;88;25723;-63
2021/12/05 16:04:54;;;;;;;;;;;;;;;2.17;80.31;97448.56;1630748;87;25681;-64
2021/12/05 16:07:23;;;;;;;;;;;;;;;2.17;80.33;97460.72;1630846;87;25669;-64
2021/12/05 16:09:50;;;;;;;;;;;;;;;2.18;80.36;97475.84;1630697;88;27473;-63
2021/12/05 16:12:19;;;;;;;;;;;;;;;2.17;80.36;97476.95;1630790;87;25689;-63
2021/12/05 16:14:49;;;;;;;;;;;;;;;2.17;80.33;97486.41;1630738;88;25505;-64
2021/12/05 16:17:27;;;;;;;;;;;;;;;2.18;80.38;97474.48;1630829;87;25730;-64
2021/12/05 16:20:07;;;;;;;;;;;;;;;2.19;80.35;97478.80;1630908;87;25674;-64
2021/12/05 16:22:36;;;;;;;;;;;;;;;2.19;80.55;97478.80;1630980;87;28042;-64
2021/12/05 16:25:18;;;;;;;;;;;;;;;2.21;80.50;97492.02;1623023;88;25824;-64
2021/12/05 16:27:54;;;;;;;;;;;;;;;2.22;80.48;97496.36;1630903;87;25488;-64
2021/12/05 16:30:26;;;;;;;;;;;;;;;2.17;80.95;97499.10;1629592;88;25756;-64
2021/12/05 16:32:53;;;;;;;;;;;;;;;2.14;80.82;97504.55;1630878;87;25690;-64
2021/12/05 16:35:38;;;;;;;;;;;;;;;2.10;80.83;97496.20;1630833;88;28239;-64
2021/12/05 16:38:19;;;;;;;;;;;;;;;2.09;80.82;97493.78;1630714;88;25672;-64
2021/12/05 16:40:57;;;;;;;;;;;;;;;2.10;80.90;97486.73;1630629;87;25636;-64
2021/12/05 16:43:26;;;;;;;;;;;;;;;2.11;80.79;97491.06;1630938;88;25710;-64
2021/12/05 16:46:16;;;;;;;;;;;;;;;2.09;80.79;97491.89;1631097;88;25658;-64
2021/12/05 16:48:44;;;;;;;;;;;;;;;2.08;80.82;97498.94;1630877;87;27474;-63
2021/12/05 16:51:20;;;;;;;;;;;;;;;2.11;80.80;97497.01;1630462;87;25500;-64
2021/12/05 16:53:50;;;;;;;;;;;;;;;2.11;80.92;97492.42;1630852;87;25432;-63
2021/12/05 16:56:35;;;;;;;;;;;;;;;2.10;80.98;97490.00;1630620;88;25744;-63
2021/12/05 16:59:07;;;;;;;;;;;;;;;2.17;81.20;97496.40;1629923;87;25811;-64
2021/12/05 17:01:34;;;;;;;;;;;;;;;2.17;81.02;97495.05;1630140;88;27971;-64
2021/12/05 17:04:00;;;;;;;;;;;;;;;2.23;80.89;97492.55;1630214;87;25657;-64
2021/12/05 17:06:27;;;;;;;;;;;;;;;2.30;80.82;97490.30;1630350;88;25605;-64
2021/12/05 17:08:54;;;;;;;;;;;;;;;2.30;80.71;97501.68;1630272;88;43907;-64
2021/12/05 17:11:22;;;;;;;;;;;;;;;2.32;80.81;97492.72;1630232;88;25519;-64
2021/12/05 17:13:51;;;;;;;;;;;;;;;2.37;80.70;97496.19;1630163;88;27431;-64
2021/12/05 17:16:27;;;;;;;;;;;;;;;2.37;80.37;97484.02;1630387;87;25681;-64
2021/12/05 17:19:07;;;;;;;;;;;;;;;2.34;80.26;97495.95;1630393;87;25707;-64
2021/12/05 17:21:37;;;;;;;;;;;;;;;2.29;80.25;97495.99;1630359;87;26882;-64
2021/12/05 17:24:10;;;;;;;;;;;;;;;2.27;80.28;97489.52;1630389;88;25468;-64
2021/12/05 17:26:39;;;;;;;;;;;;;;;2.22;80.45;97506.60;1630515;87;27479;-64
2021/12/05 17:29:19;;;;;;;;;;;;;;;2.22;80.65;97508.52;1630050;88;27132;-64
2021/12/05 17:31:49;;;;;;;;;;;;;;;2.26;80.75;97512.25;1630311;87;25595;-64
2021/12/05 17:34:21;;;;;;;;;;;;;;;2.32;80.56;97507.58;1630318;87;25859;-64
2021/12/05 17:37:02;;;;;;;;;;;;;;;2.37;80.39;97510.24;1630380;88;25673;-64
2021/12/05 17:39:32;;;;;;;;;;;;;;;2.37;80.40;97511.59;1629009;88;27509;-63
2021/12/05 17:42:07;;;;;;;;;;;;;;;2.43;80.48;97506.39;1630204;88;25490;-64
2021/12/05 17:44:35;;;;;;;;;;;;;;;2.44;80.40;97507.98;1630206;88;25677;-64
2021/12/05 17:47:04;;;;;;;;;;;;;;;2.50;80.42;97511.43;1630076;88;25874;-64
2021/12/05 17:49:33;;;;;;;;;;;;;;;2.50;80.20;97509.54;1630354;87;25499;-63
2021/12/05 17:52:01;;;;;;;;;;;;;;;2.48;80.39;97503.61;1630497;87;27405;-64
2021/12/05 17:54:34;;;;;;;;;;;;;;;2.44;80.35;97503.93;1630206;88;25621;-64
2021/12/05 17:57:06;;;;;;;;;;;;;;;2.42;80.30;97502.63;1630107;87;25713;-63
2021/12/05 17:59:30;;;;;;;;;;;;;;;2.33;80.46;97511.35;1629170;87;26139;-64
2021/12/05 18:04:46;;;;;;;;;;;;;;;2.24;80.59;97517.13;1630148;88;25830;-63
2021/12/05 18:07:13;;;;;;;;;;;;;;;2.23;80.60;97531.21;1630239;87;25717;-63
2021/12/05 18:09:40;;;;;;;;;;;;;;;2.24;80.63;97541.45;1630310;87;25704;-63
2021/12/05 18:15:35;;;;;;;;;;;;;;;2.31;80.58;97545.19;1574856;91;25704;-64
2021/12/05 18:18:01;;;;;;;;;;;;;;;2.36;80.57;97558.09;1563643;91;26146;-63
2021/12/05 18:20:30;;;;;;;;;;;;;;;2.43;80.44;97563.17;1564503;91;25803;-63